Apollo Beach, Florida
Current Conditions -  °F | °C
As of 5:58 AM on Thursday 23 Oct 2014 (Local Time) from KMCF Reporting Station
Clear Clear  
Wind Chill: 17°   Ceiling: Unl
Heat Index: 17°   Visibility: 10mi
Dew Point: 14°   Wind: 14mph
Humidity: 84%   Direction: 70°ENE
Pressure: 29.96"   Gusts: NA
Location:  27.77°N, 82.39°W
Report Text: KMCF 230958Z AUTO 07012KT 10SM CLR 17/14 A2996 RMK AO2 SLP148 T01710144
Loading
Personal Weather Stations






























Interactive Weather Map
Tropical Storm Tracking
New forecast layout! Learn more

10-Day Weather Forecast

Advertisements
Track Severe Weather on mobile